Time;durP1;ratioP1;P1;durP2;ratioP2;P2;SDS_P1;SDS_P2;PMS_P1;PMS_P2;Temp;Humidity;BMP_temperature;BMP_pressure;BME280_temperature;BME280_humidity;BME280_pressure;Samples;Min_cycle;Max_cycle;Signal;HPM_P1;HPM_P2
2021/01/31 00:01:48;;;;;;;28.93;13.60;;;;;;;;;;5072692;28;20245;-69
2021/01/31 00:04:13;;;;;;;26.10;14.30;;;;;;;;;;5079842;28;20569;-68
2021/01/31 00:06:38;;;;;;;28.43;14.20;;;;;;;;;;5076765;28;20226;-68
2021/01/31 00:09:03;;;;;;;30.87;14.63;;;;;;;;;;5078200;28;20205;-68
2021/01/31 00:11:29;;;;;;;25.83;14.10;;;;;;;;;;5084282;28;20185;-70
2021/01/31 00:13:54;;;;;;;29.57;13.93;;;;;;;;;;5077493;28;20298;-68
2021/01/31 00:16:19;;;;;;;28.83;14.70;;;;;;;;;;5077840;28;20196;-70
2021/01/31 00:18:44;;;;;;;34.33;15.37;;;;;;;;;;5084822;28;20192;-67
2021/01/31 00:21:09;;;;;;;29.13;14.23;;;;;;;;;;5081570;28;20207;-70
2021/01/31 00:23:34;;;;;;;25.70;14.37;;;;;;;;;;5085750;28;20204;-70
2021/01/31 00:26:00;;;;;;;28.67;14.70;;;;;;;;;;5079977;28;20202;-70
2021/01/31 00:28:25;;;;;;;26.43;13.83;;;;;;;;;;5085828;28;20547;-70
2021/01/31 00:30:51;;;;;;;27.43;15.73;;;;;;;;;;5078530;28;20250;-70
2021/01/31 00:33:21;;;;;;;27.87;14.13;;;;;;;;;;5079053;28;20203;-70
2021/01/31 00:35:46;;;;;;;30.67;15.27;;;;;;;;;;5079357;28;20188;-70
2021/01/31 00:38:13;;;;;;;33.07;15.30;;;;;;;;;;5076203;28;20203;-69
2021/01/31 00:40:38;;;;;;;31.17;15.57;;;;;;;;;;5073831;28;20420;-69
2021/01/31 00:43:03;;;;;;;30.20;15.03;;;;;;;;;;5084515;28;20221;-69
2021/01/31 00:45:29;;;;;;;33.93;15.67;;;;;;;;;;5078928;28;20210;-70
2021/01/31 00:47:55;;;;;;;32.90;15.43;;;;;;;;;;5069355;28;20683;-69
2021/01/31 00:50:24;;;;;;;32.60;15.80;;;;;;;;;;5084899;28;20172;-70
2021/01/31 00:52:49;;;;;;;27.87;14.40;;;;;;;;;;5078813;28;20181;-67
2021/01/31 00:55:14;;;;;;;30.20;15.10;;;;;;;;;;5080846;28;20191;-70
2021/01/31 00:57:40;;;;;;;27.57;14.87;;;;;;;;;;5074494;28;20181;-70
2021/01/31 01:00:13;;;;;;;30.97;15.57;;;;;;;;;;5078018;28;20215;-70
2021/01/31 01:02:38;;;;;;;26.77;14.27;;;;;;;;;;5079005;28;20204;-70
2021/01/31 01:05:04;;;;;;;29.60;14.80;;;;;;;;;;5077604;28;21024;-69
2021/01/31 01:07:29;;;;;;;29.60;14.43;;;;;;;;;;5078349;28;20272;-69
2021/01/31 01:09:54;;;;;;;33.97;15.20;;;;;;;;;;5090251;28;20591;-69
2021/01/31 01:12:19;;;;;;;31.63;15.17;;;;;;;;;;5084995;28;20196;-69
2021/01/31 01:14:44;;;;;;;32.05;15.75;;;;;;;;;;5080675;28;20204;-68
2021/01/31 01:17:10;;;;;;;33.13;16.70;;;;;;;;;;5084242;28;20197;-70
2021/01/31 01:19:35;;;;;;;29.00;14.67;;;;;;;;;;5081454;28;20214;-70
2021/01/31 01:22:00;;;;;;;26.93;14.80;;;;;;;;;;5079720;28;20196;-70
2021/01/31 01:24:25;;;;;;;28.33;14.77;;;;;;;;;;5082885;28;20630;-69
2021/01/31 01:26:51;;;;;;;33.33;15.43;;;;;;;;;;5081989;28;20709;-70
2021/01/31 01:29:17;;;;;;;29.97;15.27;;;;;;;;;;5089240;28;20695;-70
2021/01/31 01:31:42;;;;;;;36.80;17.30;;;;;;;;;;5079855;28;20184;-67
2021/01/31 01:34:07;;;;;;;32.53;15.53;;;;;;;;;;5082768;28;20695;-68
2021/01/31 01:36:33;;;;;;;28.43;14.03;;;;;;;;;;5081550;28;20237;-68
2021/01/31 01:38:58;;;;;;;31.10;14.93;;;;;;;;;;5089969;28;20557;-69
2021/01/31 01:41:23;;;;;;;30.60;15.43;;;;;;;;;;5076529;28;20601;-68
2021/01/31 01:43:52;;;;;;;33.00;15.73;;;;;;;;;;5086999;28;20202;-68
2021/01/31 01:46:17;;;;;;;30.67;14.90;;;;;;;;;;5089038;28;20665;-68
2021/01/31 01:48:44;;;;;;;30.92;15.48;;;;;;;;;;5081827;28;20648;-68
2021/01/31 01:51:09;;;;;;;33.43;16.00;;;;;;;;;;5083063;28;20258;-68
2021/01/31 01:53:37;;;;;;;30.77;16.17;;;;;;;;;;5083432;28;20252;-69
2021/01/31 01:56:17;;;;;;;30.23;14.17;;;;;;;;;;5082384;28;20660;-68
2021/01/31 01:58:42;;;;;;;32.90;15.13;;;;;;;;;;5077447;28;20180;-68
2021/01/31 02:01:08;;;;;;;34.77;15.57;;;;;;;;;;5073591;28;20200;-68
2021/01/31 02:03:34;;;;;;;33.87;15.90;;;;;;;;;;5074417;28;20204;-68
2021/01/31 02:06:13;;;;;;;29.57;14.97;;;;;;;;;;5073235;28;20184;-68
2021/01/31 02:08:41;;;;;;;29.47;14.57;;;;;;;;;;5084117;28;20254;-69
2021/01/31 02:11:07;;;;;;;31.33;15.63;;;;;;;;;;5074822;28;20192;-69
2021/01/31 02:13:33;;;;;;;34.37;16.73;;;;;;;;;;5078554;28;20274;-68
2021/01/31 02:15:59;;;;;;;35.10;15.83;;;;;;;;;;5081859;28;20200;-70
2021/01/31 02:18:37;;;;;;;33.03;15.27;;;;;;;;;;5090416;28;20176;-69
2021/01/31 02:21:11;;;;;;;32.47;16.33;;;;;;;;;;5084536;28;20222;-70
2021/01/31 02:23:36;;;;;;;31.77;15.50;;;;;;;;;;5080730;28;20200;-69
2021/01/31 02:26:04;;;;;;;32.45;14.88;;;;;;;;;;5082419;28;20176;-69
2021/01/31 02:28:55;;;;;;;32.20;16.27;;;;;;;;;;5083317;28;20196;-69
2021/01/31 02:31:26;;;;;;;29.43;14.33;;;;;;;;;;5081741;28;20219;-70
2021/01/31 02:33:52;;;;;;;33.57;15.77;;;;;;;;;;5080500;28;20200;-69
2021/01/31 02:36:37;;;;;;;34.57;16.50;;;;;;;;;;5079746;28;20238;-69
2021/01/31 02:39:02;;;;;;;27.97;14.77;;;;;;;;;;5081479;28;20176;-69
2021/01/31 02:41:47;;;;;;;34.15;16.15;;;;;;;;;;5074757;28;20208;-69
2021/01/31 02:44:14;;;;;;;33.47;16.17;;;;;;;;;;5081557;28;20208;-68
2021/01/31 02:46:42;;;;;;;28.90;15.80;;;;;;;;;;5084245;28;20698;-68
2021/01/31 02:49:15;;;;;;;29.13;14.90;;;;;;;;;;5072603;28;20735;-68
2021/01/31 02:52:13;;;;;;;29.87;15.40;;;;;;;;;;5079605;28;20194;-69
2021/01/31 02:54:56;;;;;;;33.57;15.83;;;;;;;;;;5080174;28;20201;-69
2021/01/31 02:57:42;;;;;;;30.77;16.10;;;;;;;;;;5083505;28;20728;-68
2021/01/31 03:00:10;;;;;;;28.17;15.07;;;;;;;;;;5078260;28;20212;-69
2021/01/31 03:02:39;;;;;;;34.90;16.80;;;;;;;;;;5086184;28;20695;-69
2021/01/31 03:05:13;;;;;;;29.37;14.97;;;;;;;;;;5082890;28;20285;-69
2021/01/31 03:07:48;;;;;;;29.47;15.50;;;;;;;;;;5079414;28;20234;-69
2021/01/31 03:10:17;;;;;;;30.30;15.70;;;;;;;;;;5084024;28;20184;-69
2021/01/31 03:12:57;;;;;;;34.60;16.97;;;;;;;;;;5082308;28;20538;-68
2021/01/31 03:15:27;;;;;;;34.43;17.13;;;;;;;;;;5081514;28;20245;-68
2021/01/31 03:18:00;;;;;;;32.87;15.83;;;;;;;;;;5084021;28;20202;-68
2021/01/31 03:20:31;;;;;;;31.53;16.30;;;;;;;;;;5084235;28;20188;-68
2021/01/31 03:23:08;;;;;;;33.30;14.63;;;;;;;;;;5083401;28;20267;-68
2021/01/31 03:25:53;;;;;;;33.00;16.40;;;;;;;;;;5084889;28;20301;-68
2021/01/31 03:28:18;;;;;;;33.63;15.80;;;;;;;;;;5074898;28;20736;-68
2021/01/31 03:30:45;;;;;;;33.67;16.63;;;;;;;;;;5086070;28;20306;-68
2021/01/31 03:33:13;;;;;;;36.77;17.53;;;;;;;;;;5083884;28;20318;-69
2021/01/31 03:35:40;;;;;;;32.40;15.67;;;;;;;;;;5081379;28;20197;-67
2021/01/31 03:38:14;;;;;;;30.43;16.37;;;;;;;;;;5077064;28;20191;-68
2021/01/31 03:40:41;;;;;;;29.43;15.83;;;;;;;;;;5082832;28;20551;-68
2021/01/31 03:43:06;;;;;;;34.93;16.37;;;;;;;;;;5082553;28;20725;-68
2021/01/31 03:45:50;;;;;;;32.20;16.10;;;;;;;;;;5087760;28;20378;-67
2021/01/31 03:48:17;;;;;;;30.00;15.63;;;;;;;;;;5078890;28;20184;-68
2021/01/31 03:50:43;;;;;;;33.20;16.90;;;;;;;;;;5081007;28;20180;-68
2021/01/31 03:53:09;;;;;;;29.47;16.30;;;;;;;;;;5087153;28;20184;-68
2021/01/31 03:55:34;;;;;;;31.40;15.50;;;;;;;;;;5082686;28;20177;-69
2021/01/31 03:58:02;;;;;;;34.63;15.00;;;;;;;;;;5077821;28;20180;-68
2021/01/31 04:00:30;;;;;;;30.90;14.83;;;;;;;;;;5079407;28;20260;-68
2021/01/31 04:02:57;;;;;;;31.03;14.97;;;;;;;;;;5084140;28;20380;-68
2021/01/31 04:05:24;;;;;;;31.13;15.47;;;;;;;;;;5080631;28;20179;-68
2021/01/31 04:07:51;;;;;;;32.50;17.27;;;;;;;;;;5085114;28;20177;-68
2021/01/31 04:10:16;;;;;;;34.07;15.17;;;;;;;;;;5090260;28;20195;-68
2021/01/31 04:12:43;;;;;;;29.03;14.53;;;;;;;;;;5087321;28;20187;-68
2021/01/31 04:15:30;;;;;;;34.53;15.83;;;;;;;;;;5084554;28;20185;-68
2021/01/31 04:17:55;;;;;;;31.63;15.37;;;;;;;;;;5100182;28;20180;-68
2021/01/31 04:20:20;;;;;;;30.80;16.43;;;;;;;;;;5089638;28;20260;-69
2021/01/31 04:22:45;;;;;;;32.13;16.30;;;;;;;;;;5084839;28;20208;-68
2021/01/31 04:25:11;;;;;;;31.13;16.13;;;;;;;;;;5086209;28;20247;-67
2021/01/31 04:27:36;;;;;;;32.40;14.93;;;;;;;;;;5075316;28;20581;-68
2021/01/31 04:30:02;;;;;;;31.47;16.00;;;;;;;;;;5080713;28;20254;-68
2021/01/31 04:32:27;;;;;;;32.37;16.50;;;;;;;;;;5085241;28;20282;-68
2021/01/31 04:34:52;;;;;;;37.63;16.30;;;;;;;;;;5085098;28;20224;-68
2021/01/31 04:37:20;;;;;;;31.10;15.60;;;;;;;;;;5086669;28;20185;-69
2021/01/31 04:39:46;;;;;;;33.23;15.73;;;;;;;;;;5075534;28;20219;-67
2021/01/31 04:42:11;;;;;;;29.97;15.53;;;;;;;;;;5087504;28;20236;-68
2021/01/31 04:44:36;;;;;;;32.20;16.20;;;;;;;;;;5083974;28;20192;-68
2021/01/31 04:47:04;;;;;;;34.23;15.97;;;;;;;;;;5082928;28;20188;-68
2021/01/31 04:49:32;;;;;;;33.43;17.83;;;;;;;;;;5090728;28;20255;-68
2021/01/31 04:52:00;;;;;;;32.10;15.83;;;;;;;;;;5080464;28;20184;-68
2021/01/31 04:54:44;;;;;;;32.77;15.57;;;;;;;;;;5088510;28;20207;-68
2021/01/31 04:57:22;;;;;;;30.40;16.10;;;;;;;;;;5079285;28;20187;-68
2021/01/31 04:59:48;;;;;;;33.13;16.43;;;;;;;;;;5082580;28;20181;-68
2021/01/31 05:02:19;;;;;;;37.03;16.40;;;;;;;;;;5084680;28;20207;-68
2021/01/31 05:04:55;;;;;;;36.47;16.23;;;;;;;;;;5080900;28;20197;-68
2021/01/31 05:07:27;;;;;;;38.40;16.60;;;;;;;;;;5078392;28;20179;-68
2021/01/31 05:09:52;;;;;;;34.60;17.43;;;;;;;;;;5076582;28;20176;-68
2021/01/31 05:12:27;;;;;;;36.13;16.60;;;;;;;;;;5083871;28;20180;-68
2021/01/31 05:14:52;;;;;;;33.40;16.93;;;;;;;;;;5083862;28;20203;-68
2021/01/31 05:17:18;;;;;;;34.78;16.00;;;;;;;;;;5084546;28;20257;-67
2021/01/31 05:19:43;;;;;;;32.90;16.70;;;;;;;;;;5088194;28;20195;-67
2021/01/31 05:22:13;;;;;;;30.80;14.87;;;;;;;;;;5080263;28;20354;-67
2021/01/31 05:24:38;;;;;;;34.23;16.80;;;;;;;;;;5079190;28;20260;-67
2021/01/31 05:27:04;;;;;;;33.27;16.23;;;;;;;;;;5078076;28;20753;-67
2021/01/31 05:29:36;;;;;;;31.63;15.50;;;;;;;;;;5079784;28;20280;-66
2021/01/31 05:32:12;;;;;;;34.53;16.30;;;;;;;;;;5075657;28;20238;-67
2021/01/31 05:34:37;;;;;;;34.87;17.20;;;;;;;;;;5083825;28;20688;-67
2021/01/31 05:37:04;;;;;;;32.33;16.42;;;;;;;;;;5084248;28;20685;-67
2021/01/31 05:39:33;;;;;;;34.73;15.73;;;;;;;;;;5080438;28;20200;-67
2021/01/31 05:42:03;;;;;;;33.73;16.63;;;;;;;;;;5084097;28;20204;-67
2021/01/31 05:44:30;;;;;;;33.60;16.30;;;;;;;;;;5078825;28;20270;-67
2021/01/31 05:46:57;;;;;;;34.03;17.93;;;;;;;;;;5083260;28;20181;-67
2021/01/31 05:49:31;;;;;;;32.90;17.00;;;;;;;;;;5085526;28;20179;-67
2021/01/31 05:51:57;;;;;;;37.97;17.40;;;;;;;;;;5084451;28;20183;-66
2021/01/31 05:54:26;;;;;;;35.40;16.87;;;;;;;;;;5082496;28;20200;-67
2021/01/31 05:56:52;;;;;;;36.57;16.87;;;;;;;;;;5081275;28;20189;-67
2021/01/31 05:59:18;;;;;;;36.57;18.53;;;;;;;;;;5082678;28;20186;-67
2021/01/31 06:01:50;;;;;;;33.80;16.37;;;;;;;;;;5078651;28;20204;-67
2021/01/31 06:04:16;;;;;;;33.90;16.07;;;;;;;;;;5087037;28;20203;-66
2021/01/31 06:06:41;;;;;;;40.20;17.67;;;;;;;;;;5079614;28;20176;-67
2021/01/31 06:09:19;;;;;;;30.97;15.57;;;;;;;;;;5079235;28;20180;-67
2021/01/31 06:11:45;;;;;;;38.80;16.53;;;;;;;;;;5084798;28;20180;-67
2021/01/31 06:14:13;;;;;;;38.73;17.87;;;;;;;;;;5082659;28;20200;-67
2021/01/31 06:16:39;;;;;;;35.50;16.43;;;;;;;;;;5087713;28;20190;-67
2021/01/31 06:19:07;;;;;;;38.63;16.23;;;;;;;;;;5085633;28;20263;-67
2021/01/31 06:21:37;;;;;;;33.33;17.60;;;;;;;;;;5074094;28;20203;-67
2021/01/31 06:24:03;;;;;;;35.90;16.63;;;;;;;;;;5081540;28;20207;-67
2021/01/31 06:26:29;;;;;;;37.47;17.77;;;;;;;;;;5076222;28;20176;-67
2021/01/31 06:29:00;;;;;;;38.00;18.50;;;;;;;;;;5075503;28;20786;-67
2021/01/31 06:31:33;;;;;;;36.47;16.87;;;;;;;;;;5076969;28;20227;-67
2021/01/31 06:33:58;;;;;;;38.13;18.53;;;;;;;;;;5087542;28;20684;-67
2021/01/31 06:36:32;;;;;;;40.03;17.07;;;;;;;;;;5082280;28;20183;-66
2021/01/31 06:38:57;;;;;;;32.83;16.43;;;;;;;;;;5086021;28;20190;-66
2021/01/31 06:41:31;;;;;;;37.25;17.45;;;;;;;;;;5090728;28;20203;-67
2021/01/31 06:44:17;;;;;;;40.70;18.77;;;;;;;;;;5089052;28;20192;-67
2021/01/31 06:46:52;;;;;;;40.70;17.57;;;;;;;;;;5086636;28;20207;-70
2021/01/31 06:49:35;;;;;;;37.10;17.17;;;;;;;;;;5087937;28;20174;-67
2021/01/31 06:52:03;;;;;;;37.50;18.10;;;;;;;;;;5079704;28;20210;-66
2021/01/31 06:54:47;;;;;;;33.60;16.90;;;;;;;;;;5078037;28;20257;-66
2021/01/31 06:57:18;;;;;;;36.30;18.37;;;;;;;;;;5080202;28;20523;-66
2021/01/31 06:59:49;;;;;;;40.37;18.30;;;;;;;;;;5084970;28;20225;-67
2021/01/31 07:02:23;;;;;;;37.53;18.37;;;;;;;;;;5083805;28;20208;-67
2021/01/31 07:04:58;;;;;;;34.33;17.80;;;;;;;;;;5087915;28;20266;-67
2021/01/31 07:07:41;;;;;;;37.87;18.20;;;;;;;;;;5080429;28;20173;-67
2021/01/31 07:10:35;;;;;;;45.93;19.53;;;;;;;;;;5087367;28;20175;-67
2021/01/31 07:13:12;;;;;;;41.17;19.07;;;;;;;;;;5083150;28;20241;-69
2021/01/31 07:16:00;;;;;;;35.53;17.17;;;;;;;;;;5079278;28;20229;-69
2021/01/31 07:18:27;;;;;;;40.00;18.13;;;;;;;;;;5085966;28;20700;-69
2021/01/31 07:20:54;;;;;;;41.13;19.80;;;;;;;;;;5089084;28;20200;-69
2021/01/31 07:23:26;;;;;;;38.07;18.93;;;;;;;;;;5078392;28;20265;-69
2021/01/31 07:25:56;;;;;;;37.07;17.70;;;;;;;;;;5086669;28;20179;-69
2021/01/31 07:28:21;;;;;;;37.80;16.90;;;;;;;;;;5081728;28;20169;-69
2021/01/31 07:30:52;;;;;;;39.88;18.17;;;;;;;;;;5082071;28;20179;-69
2021/01/31 07:33:37;;;;;;;36.87;17.33;;;;;;;;;;5088933;28;20269;-69
2021/01/31 07:36:08;;;;;;;39.13;17.57;;;;;;;;;;5080668;28;20206;-69
2021/01/31 07:38:40;;;;;;;35.10;16.83;;;;;;;;;;5078632;28;20173;-68
2021/01/31 07:41:06;;;;;;;41.07;17.33;;;;;;;;;;5081558;28;20201;-69
2021/01/31 07:43:34;;;;;;;41.27;19.43;;;;;;;;;;5080265;28;20248;-69
2021/01/31 07:46:00;;;;;;;41.77;18.67;;;;;;;;;;5083270;28;20259;-68
2021/01/31 07:48:44;;;;;;;38.20;18.13;;;;;;;;;;5091655;28;20553;-69
2021/01/31 07:51:10;;;;;;;44.37;18.40;;;;;;;;;;5085612;28;20672;-69
2021/01/31 07:53:37;;;;;;;39.37;19.50;;;;;;;;;;5083878;28;20208;-69
2021/01/31 07:56:20;;;;;;;40.03;18.93;;;;;;;;;;5088606;28;20226;-69
2021/01/31 07:58:46;;;;;;;43.20;17.43;;;;;;;;;;5080152;28;20188;-69
2021/01/31 08:01:12;;;;;;;42.10;19.53;;;;;;;;;;5079294;28;20196;-69
2021/01/31 08:03:39;;;;;;;46.37;19.50;;;;;;;;;;5081260;28;20192;-69
2021/01/31 08:06:06;;;;;;;41.53;18.97;;;;;;;;;;5079539;28;20260;-68
2021/01/31 08:08:38;;;;;;;41.47;19.27;;;;;;;;;;5086004;28;20185;-70
2021/01/31 08:11:04;;;;;;;45.63;20.23;;;;;;;;;;5088635;28;20176;-69
2021/01/31 08:13:40;;;;;;;39.13;18.57;;;;;;;;;;5077735;28;20208;-69
2021/01/31 08:16:24;;;;;;;41.97;18.37;;;;;;;;;;5079983;28;20442;-69
2021/01/31 08:19:03;;;;;;;36.83;17.30;;;;;;;;;;5082738;28;20182;-69
2021/01/31 08:21:47;;;;;;;37.33;17.33;;;;;;;;;;5084907;28;20207;-69
2021/01/31 08:24:12;;;;;;;37.20;17.47;;;;;;;;;;5081652;28;20242;-69
2021/01/31 08:26:42;;;;;;;38.83;20.03;;;;;;;;;;5076891;28;20173;-69
2021/01/31 08:29:25;;;;;;;37.87;19.30;;;;;;;;;;5087608;28;20192;-69
2021/01/31 08:32:03;;;;;;;36.87;18.47;;;;;;;;;;5077351;28;20711;-69
2021/01/31 08:34:29;;;;;;;32.10;17.43;;;;;;;;;;5083168;28;20631;-69
2021/01/31 08:36:54;;;;;;;37.90;19.97;;;;;;;;;;5075725;28;20275;-69
2021/01/31 08:39:29;;;;;;;36.53;17.30;;;;;;;;;;5074237;28;20187;-69
2021/01/31 08:42:02;;;;;;;36.60;17.80;;;;;;;;;;5083766;28;20215;-69
2021/01/31 08:44:27;;;;;;;33.37;18.77;;;;;;;;;;5073113;28;20253;-69
2021/01/31 08:47:02;;;;;;;35.78;18.20;;;;;;;;;;5085453;28;20172;-69
2021/01/31 08:49:28;;;;;;;33.53;18.30;;;;;;;;;;5086951;28;20182;-69
2021/01/31 08:51:56;;;;;;;32.80;16.50;;;;;;;;;;5081937;28;20275;-69
2021/01/31 08:54:21;;;;;;;32.20;16.47;;;;;;;;;;5081645;28;20206;-69
2021/01/31 08:57:00;;;;;;;30.53;16.47;;;;;;;;;;5082360;28;20188;-69
2021/01/31 08:59:30;;;;;;;29.50;16.10;;;;;;;;;;5073593;28;20192;-68
2021/01/31 09:01:58;;;;;;;29.53;15.27;;;;;;;;;;5070520;28;20232;-71
2021/01/31 09:04:25;;;;;;;29.53;15.57;;;;;;;;;;5073051;28;20206;-69
2021/01/31 09:06:50;;;;;;;32.63;16.37;;;;;;;;;;5071838;28;20176;-68
2021/01/31 09:09:20;;;;;;;30.17;16.13;;;;;;;;;;5070914;28;20227;-69
2021/01/31 09:11:49;;;;;;;29.17;15.10;;;;;;;;;;5076477;28;20180;-69
2021/01/31 09:14:18;;;;;;;31.67;16.37;;;;;;;;;;5075400;28;20193;-68
2021/01/31 09:16:43;;;;;;;28.30;15.10;;;;;;;;;;5081545;28;20230;-69
2021/01/31 09:19:19;;;;;;;27.50;14.20;;;;;;;;;;5087973;28;20665;-69
2021/01/31 09:21:45;;;;;;;31.23;17.03;;;;;;;;;;5071754;28;20746;-69
2021/01/31 09:24:13;;;;;;;29.33;15.47;;;;;;;;;;5072505;28;20220;-69
2021/01/31 09:26:38;;;;;;;23.17;14.33;;;;;;;;;;5074496;28;20610;-69
2021/01/31 09:29:08;;;;;;;26.47;13.80;;;;;;;;;;5075109;28;20259;-69
2021/01/31 09:31:34;;;;;;;28.87;15.73;;;;;;;;;;5072329;28;20191;-69
2021/01/31 09:34:00;;;;;;;24.40;14.17;;;;;;;;;;5078596;28;20200;-69
2021/01/31 09:36:27;;;;;;;29.67;14.97;;;;;;;;;;5077654;28;20190;-69
2021/01/31 09:38:53;;;;;;;26.70;14.53;;;;;;;;;;5077931;28;20185;-68
2021/01/31 09:41:20;;;;;;;25.60;14.17;;;;;;;;;;5073424;28;20218;-69
2021/01/31 09:43:46;;;;;;;22.23;13.60;;;;;;;;;;5075594;28;20201;-67
2021/01/31 09:46:13;;;;;;;27.13;15.20;;;;;;;;;;5073010;28;20697;-67
2021/01/31 09:48:39;;;;;;;25.53;14.93;;;;;;;;;;5075659;28;20330;-68
2021/01/31 09:51:05;;;;;;;25.63;14.83;;;;;;;;;;5074417;28;20275;-67
2021/01/31 09:53:37;;;;;;;24.90;13.27;;;;;;;;;;5073041;28;20285;-68
2021/01/31 09:56:05;;;;;;;23.50;13.33;;;;;;;;;;5074009;28;20559;-68
2021/01/31 09:58:31;;;;;;;23.17;13.57;;;;;;;;;;5069839;28;20181;-68
2021/01/31 10:01:06;;;;;;;24.60;14.97;;;;;;;;;;5076465;28;20183;-69
2021/01/31 10:03:32;;;;;;;20.53;13.73;;;;;;;;;;5076823;28;20207;-68
2021/01/31 10:06:03;;;;;;;24.03;14.50;;;;;;;;;;5072999;28;20791;-69
2021/01/31 10:08:28;;;;;;;21.93;14.37;;;;;;;;;;5073428;28;20234;-68
2021/01/31 10:10:54;;;;;;;22.20;14.30;;;;;;;;;;5075487;28;20653;-68
2021/01/31 10:13:26;;;;;;;23.70;14.40;;;;;;;;;;5082843;28;20283;-68
2021/01/31 10:15:53;;;;;;;22.03;13.83;;;;;;;;;;5065351;28;20681;-67
2021/01/31 10:18:26;;;;;;;21.33;13.40;;;;;;;;;;5080013;28;20169;-68
2021/01/31 10:21:11;;;;;;;20.93;14.03;;;;;;;;;;5083533;28;20273;-67
2021/01/31 10:23:36;;;;;;;19.63;12.43;;;;;;;;;;5078716;28;20204;-69
2021/01/31 10:26:01;;;;;;;22.00;14.20;;;;;;;;;;5077916;28;20169;-67
2021/01/31 10:28:34;;;;;;;20.47;12.83;;;;;;;;;;5086549;28;20180;-68
2021/01/31 10:30:59;;;;;;;21.97;12.70;;;;;;;;;;5078265;28;20268;-68
2021/01/31 10:33:44;;;;;;;24.50;13.57;;;;;;;;;;5073354;28;20287;-68
2021/01/31 10:36:21;;;;;;;21.67;12.93;;;;;;;;;;5077733;28;20635;-68
2021/01/31 10:38:47;;;;;;;20.70;13.13;;;;;;;;;;5078446;28;20186;-68
2021/01/31 10:41:12;;;;;;;19.67;12.47;;;;;;;;;;5081060;28;20192;-69
2021/01/31 10:43:37;;;;;;;21.17;13.30;;;;;;;;;;5083793;28;20203;-68
2021/01/31 10:46:03;;;;;;;18.50;12.23;;;;;;;;;;5079886;28;20187;-68
2021/01/31 10:48:28;;;;;;;19.80;12.53;;;;;;;;;;5076357;28;20654;-68
2021/01/31 10:50:53;;;;;;;18.17;12.10;;;;;;;;;;5080065;28;20200;-68
2021/01/31 10:53:18;;;;;;;18.13;13.00;;;;;;;;;;5082214;28;20214;-68
2021/01/31 10:55:43;;;;;;;19.00;12.73;;;;;;;;;;5077210;28;20172;-67
2021/01/31 10:58:09;;;;;;;18.27;12.03;;;;;;;;;;5082478;28;20650;-68
2021/01/31 11:00:34;;;;;;;19.90;12.47;;;;;;;;;;5074048;28;20185;-68
2021/01/31 11:02:59;;;;;;;19.17;12.17;;;;;;;;;;5078352;28;20290;-69
2021/01/31 11:05:24;;;;;;;19.87;12.07;;;;;;;;;;5075089;28;20217;-69
2021/01/31 11:07:49;;;;;;;20.33;12.50;;;;;;;;;;5078019;28;20284;-69
2021/01/31 11:10:15;;;;;;;17.47;11.43;;;;;;;;;;5080117;28;20172;-69
2021/01/31 11:12:41;;;;;;;18.40;10.80;;;;;;;;;;5080498;28;20598;-69
2021/01/31 11:15:06;;;;;;;19.37;12.10;;;;;;;;;;5082744;28;20231;-68
2021/01/31 11:17:31;;;;;;;19.47;12.57;;;;;;;;;;5073554;28;20206;-69
2021/01/31 11:19:57;;;;;;;19.87;13.60;;;;;;;;;;5079671;28;20210;-70
2021/01/31 11:22:22;;;;;;;20.63;12.37;;;;;;;;;;5089355;28;20208;-69
2021/01/31 11:24:47;;;;;;;18.63;10.80;;;;;;;;;;5083315;28;20196;-70
2021/01/31 11:27:12;;;;;;;19.73;11.65;;;;;;;;;;5088314;28;20206;-70
2021/01/31 11:29:37;;;;;;;17.97;13.03;;;;;;;;;;5081197;28;20183;-70
2021/01/31 11:32:04;;;;;;;18.00;11.17;;;;;;;;;;5083595;28;20230;-70
2021/01/31 11:34:29;;;;;;;16.10;11.23;;;;;;;;;;5084515;28;20208;-69
2021/01/31 11:36:54;;;;;;;19.27;12.43;;;;;;;;;;5082150;28;20172;-70
2021/01/31 11:39:19;;;;;;;18.57;11.90;;;;;;;;;;5084766;28;20264;-70
2021/01/31 11:41:45;;;;;;;16.47;11.23;;;;;;;;;;5095718;28;20196;-70
2021/01/31 11:44:10;;;;;;;19.57;11.57;;;;;;;;;;5088332;28;20250;-70
2021/01/31 11:46:35;;;;;;;16.47;11.03;;;;;;;;;;5085572;28;20184;-70
2021/01/31 11:49:02;;;;;;;15.53;10.43;;;;;;;;;;5074204;28;20275;-70
2021/01/31 11:51:27;;;;;;;15.33;10.03;;;;;;;;;;5085292;28;20251;-70
2021/01/31 11:53:52;;;;;;;16.23;11.00;;;;;;;;;;5088495;28;20741;-70
2021/01/31 11:56:17;;;;;;;16.57;11.10;;;;;;;;;;5072354;28;20180;-70
2021/01/31 11:58:42;;;;;;;16.83;11.57;;;;;;;;;;5089432;28;20204;-70
2021/01/31 12:01:10;;;;;;;17.53;10.87;;;;;;;;;;5088300;28;20181;-69
2021/01/31 12:03:36;;;;;;;13.93;10.20;;;;;;;;;;5080205;28;20220;-70
2021/01/31 12:06:01;;;;;;;15.30;9.87;;;;;;;;;;5084182;28;20164;-70
2021/01/31 12:08:26;;;;;;;14.70;10.27;;;;;;;;;;5082832;28;20188;-70
2021/01/31 12:10:51;;;;;;;14.97;10.07;;;;;;;;;;5090133;28;20176;-69
2021/01/31 12:13:16;;;;;;;15.30;10.33;;;;;;;;;;5091436;28;20195;-69
2021/01/31 12:15:42;;;;;;;14.43;10.40;;;;;;;;;;5087442;28;20195;-69
2021/01/31 12:18:07;;;;;;;15.97;10.50;;;;;;;;;;5092615;28;20176;-69
2021/01/31 12:20:32;;;;;;;15.20;10.33;;;;;;;;;;5080581;28;20626;-69
2021/01/31 12:22:58;;;;;;;16.00;11.30;;;;;;;;;;5087307;28;20260;-69
2021/01/31 12:25:23;;;;;;;16.30;10.57;;;;;;;;;;5086156;28;20180;-69
2021/01/31 12:27:48;;;;;;;14.90;10.83;;;;;;;;;;5084363;28;20179;-69
2021/01/31 12:30:15;;;;;;;16.70;10.27;;;;;;;;;;5083703;28;20638;-69
2021/01/31 12:32:40;;;;;;;17.27;11.77;;;;;;;;;;5088771;28;20183;-69
2021/01/31 12:35:05;;;;;;;16.53;10.47;;;;;;;;;;5082857;28;20201;-69
2021/01/31 12:37:30;;;;;;;14.80;10.17;;;;;;;;;;5086244;28;20276;-70
2021/01/31 12:39:56;;;;;;;14.50;9.87;;;;;;;;;;5089792;28;20188;-69
2021/01/31 12:42:22;;;;;;;14.87;11.13;;;;;;;;;;5087493;28;20204;-69
2021/01/31 12:44:47;;;;;;;15.47;9.47;;;;;;;;;;5088376;28;20279;-68
2021/01/31 12:47:12;;;;;;;13.17;9.40;;;;;;;;;;5083034;28;20683;-71
2021/01/31 12:49:38;;;;;;;14.80;9.47;;;;;;;;;;5079860;28;20185;-69
2021/01/31 12:52:03;;;;;;;12.67;8.97;;;;;;;;;;5088182;28;20184;-68
2021/01/31 12:54:28;;;;;;;13.43;9.73;;;;;;;;;;5086648;28;20567;-71
2021/01/31 12:56:53;;;;;;;11.40;8.93;;;;;;;;;;5092339;28;20171;-68
2021/01/31 12:59:19;;;;;;;12.80;8.85;;;;;;;;;;5090443;28;20188;-69
2021/01/31 13:01:44;;;;;;;14.03;10.00;;;;;;;;;;5089555;28;20200;-69
2021/01/31 13:04:09;;;;;;;13.33;9.23;;;;;;;;;;5089183;28;20204;-69
2021/01/31 13:06:34;;;;;;;16.13;9.93;;;;;;;;;;5088820;28;20195;-68
2021/01/31 13:08:59;;;;;;;13.37;9.17;;;;;;;;;;5089367;28;21678;-69
2021/01/31 13:11:24;;;;;;;14.47;9.30;;;;;;;;;;5091460;28;20195;-69
2021/01/31 13:13:50;;;;;;;12.47;8.50;;;;;;;;;;5089945;28;20247;-69
2021/01/31 13:16:15;;;;;;;11.43;8.37;;;;;;;;;;5074067;28;20241;-69
2021/01/31 13:18:41;;;;;;;12.87;8.67;;;;;;;;;;5088083;28;20184;-68
2021/01/31 13:21:06;;;;;;;11.83;8.17;;;;;;;;;;5089268;28;20184;-68
2021/01/31 13:23:31;;;;;;;11.70;8.10;;;;;;;;;;5089697;28;20257;-71
2021/01/31 13:25:56;;;;;;;11.93;7.47;;;;;;;;;;5079888;28;20215;-69
2021/01/31 13:28:22;;;;;;;10.73;7.70;;;;;;;;;;5084227;28;20201;-69
2021/01/31 13:30:47;;;;;;;12.27;9.10;;;;;;;;;;5080394;28;20436;-71
2021/01/31 13:33:13;;;;;;;13.07;7.77;;;;;;;;;;5088165;28;20211;-68
2021/01/31 13:35:38;;;;;;;10.37;7.23;;;;;;;;;;5076083;28;20180;-69
2021/01/31 13:38:03;;;;;;;11.80;8.67;;;;;;;;;;5081660;28;20599;-69
2021/01/31 13:40:29;;;;;;;13.70;8.57;;;;;;;;;;5085245;28;20188;-69
2021/01/31 13:42:54;;;;;;;12.10;7.33;;;;;;;;;;5079194;28;20208;-68
2021/01/31 13:45:21;;;;;;;11.90;8.23;;;;;;;;;;5070524;28;20188;-69
2021/01/31 13:47:46;;;;;;;9.47;7.20;;;;;;;;;;5076658;28;20185;-69
2021/01/31 13:50:14;;;;;;;10.87;8.10;;;;;;;;;;5077077;28;20648;-69
2021/01/31 13:52:39;;;;;;;9.20;6.80;;;;;;;;;;5084615;28;20266;-68
2021/01/31 13:55:05;;;;;;;10.40;6.73;;;;;;;;;;5080941;28;20295;-69
2021/01/31 13:57:30;;;;;;;8.57;6.60;;;;;;;;;;5083095;28;20703;-69
2021/01/31 13:59:55;;;;;;;9.13;6.73;;;;;;;;;;5084932;28;20180;-69
2021/01/31 14:02:20;;;;;;;7.03;5.93;;;;;;;;;;5071202;28;20204;-68
2021/01/31 14:04:47;;;;;;;9.67;6.47;;;;;;;;;;5084716;28;20626;-68
2021/01/31 14:07:12;;;;;;;8.10;6.10;;;;;;;;;;5073432;28;20169;-71
2021/01/31 14:09:38;;;;;;;10.60;6.97;;;;;;;;;;5080491;28;20672;-68
2021/01/31 14:12:03;;;;;;;8.63;6.33;;;;;;;;;;5084763;28;20176;-71
2021/01/31 14:14:28;;;;;;;8.53;6.47;;;;;;;;;;5094042;28;20688;-68
2021/01/31 14:16:53;;;;;;;7.93;5.93;;;;;;;;;;5087700;28;20189;-69
2021/01/31 14:19:18;;;;;;;7.03;5.63;;;;;;;;;;5095207;28;20626;-71
2021/01/31 14:21:45;;;;;;;8.73;6.83;;;;;;;;;;5093363;28;20726;-69
2021/01/31 14:24:10;;;;;;;9.33;6.17;;;;;;;;;;5083020;28;20204;-68
2021/01/31 14:26:35;;;;;;;11.63;6.90;;;;;;;;;;5085997;28;20850;-68